OPRK

Shaikh Zaid Airport

Rahim Yar Khan, Pakistan
TAF OPRK 251610Z 2518/2612 23005KT 4000 FU NSC TN24/2601Z TX39/2610Z FM 260600 18005KT 5000 HZ NSC
Issued Valid From Valid To
Sep-25 @ 16:10 UTC
(3 hours ago)
Sep-25 @ 18:00 UTC
(an hour ago)
Sep-26 @ 12:00 UTC
(in 17 hours)
Sep-25 @ 18:00 to Sep-26 @ 06:00
TAF OPRK 251610Z 2518/2612 23005KT 4000 FU NSC TN24/2601Z TX39/2610Z FM 260600 18005KT 5000 HZ NSC
Wind Visibility Clouds Conditions
230° at 5 knots 4,007 meters
  • No significant clouds
  • Smoke
From Sep-26 @ 06:00 to Sep-26 @ 12:00
Wind Visibility Clouds Conditions
180° at 5 knots 5,005 meters
  • No significant clouds
  • Haze
TAF OPRK 251610Z 2518/2612 23005KT 4000 FU NSC TN24/2601Z TX39/2610Z FM 260600 18005KT 5000 HZ NSC
Issued Sep-25 @ 16:10 UTC
(3 hours ago)
Valid From Sep-25 @ 18:00 UTC
(an hour ago)
Valid To Sep-26 @ 12:00 UTC
(in 17 hours)
Sep-25 @ 18:00 - Sep-26 @ 06:00
Wind Visibility
230° at 5 knots 4,007 meters
Clouds
  • No significant clouds
Conditions
  • Smoke
From Sep-26 @ 06:00 - Sep-26 @ 12:00
Wind Visibility
180° at 5 knots 5,005 meters
Clouds
  • No significant clouds
Conditions
  • Haze